Time;durP1;ratioP1;P1;durP2;ratioP2;P2;SDS_P1;SDS_P2;PMS_P1;PMS_P2;Temp;Humidity;BMP_temperature;BMP_pressure;BME280_temperature;BME280_humidity;BME280_pressure;Samples;Min_cycle;Max_cycle;Signal;HPM_P1;HPM_P2
2022/11/16 00:01:16;;;;;;;6.50;6.00;;;;;;;2.49;100.00;95282.25;4968649;28;20444;-73
2022/11/16 00:03:43;;;;;;;7.03;6.33;;;;;;;2.44;100.00;95286.84;4987714;28;20468;-73
2022/11/16 00:06:12;;;;;;;8.50;6.57;;;;;;;2.20;100.00;95253.28;4973143;28;20440;-73
2022/11/16 00:08:41;;;;;;;8.50;7.00;;;;;;;2.29;100.00;95262.69;4957218;28;20461;-73
2022/11/16 00:11:14;;;;;;;7.30;6.60;;;;;;;2.38;100.00;95276.53;4973435;28;20491;-73
2022/11/16 00:13:42;;;;;;;6.60;5.80;;;;;;;2.45;100.00;95278.72;4992909;28;20455;-73
2022/11/16 00:16:15;;;;;;;7.93;6.10;;;;;;;2.35;100.00;95277.13;4963584;28;20873;-72
2022/11/16 00:18:42;;;;;;;8.70;7.07;;;;;;;2.13;100.00;95251.09;4974073;28;20559;-73
2022/11/16 00:21:10;;;;;;;7.87;6.73;;;;;;;2.16;100.00;95247.13;4975367;28;20430;-73
2022/11/16 00:23:37;;;;;;;9.37;6.87;;;;;;;2.15;100.00;95241.16;4959604;28;20441;-72
2022/11/16 00:26:11;;;;;;;9.70;7.27;;;;;;;2.07;100.00;95240.03;4959358;28;20461;-72
2022/11/16 00:28:37;;;;;;;9.03;6.20;;;;;;;1.88;100.00;95210.03;4956935;28;20472;-72
2022/11/16 00:31:06;;;;;;;6.70;6.10;;;;;;;1.91;100.00;95215.41;4975304;28;20479;-72
2022/11/16 00:33:33;;;;;;;7.20;6.03;;;;;;;1.62;100.00;95178.59;4992145;28;20526;-72
2022/11/16 00:36:00;;;;;;;8.47;6.63;;;;;;;1.85;100.00;95218.41;4976116;28;20526;-72
2022/11/16 00:38:27;;;;;;;7.40;6.43;;;;;;;1.91;100.00;95230.28;4982935;28;20864;-72
2022/11/16 00:40:54;;;;;;;8.60;6.70;;;;;;;1.71;100.00;95193.19;4973993;28;20433;-73
2022/11/16 00:43:21;;;;;;;7.23;6.40;;;;;;;1.84;100.00;95222.09;4972850;28;20440;-72
2022/11/16 00:45:48;;;;;;;8.60;7.63;;;;;;;1.64;100.00;95194.72;4972521;28;20464;-72
2022/11/16 00:48:15;;;;;;;7.90;7.10;;;;;;;1.93;100.00;95220.31;4972175;28;20507;-73
2022/11/16 00:50:43;;;;;;;7.90;7.03;;;;;;;1.81;100.00;95188.81;4956014;28;20443;-74
2022/11/16 00:53:13;;;;;;;10.67;7.33;;;;;;;2.07;100.00;95227.00;4972578;28;20437;-73
2022/11/16 00:55:39;;;;;;;7.13;6.13;;;;;;;2.02;100.00;95221.16;4988527;28;20521;-73
2022/11/16 00:58:07;;;;;;;7.13;6.43;;;;;;;1.79;100.00;95183.91;4956570;28;20473;-73
2022/11/16 01:00:35;;;;;;;8.47;7.50;;;;;;;1.95;100.00;95218.94;4977741;28;20452;-72
2022/11/16 01:03:02;;;;;;;10.93;6.23;;;;;;;1.76;100.00;95180.06;4991783;28;20449;-72
2022/11/16 01:05:29;;;;;;;8.93;7.97;;;;;;;2.00;100.00;95211.03;4991547;28;20503;-72
2022/11/16 01:07:56;;;;;;;9.03;6.87;;;;;;;2.00;100.00;95216.22;4991886;28;20828;-72
2022/11/16 01:10:24;;;;;;;7.13;6.40;;;;;;;1.98;100.00;95204.53;4985408;28;20457;-72
2022/11/16 01:12:52;;;;;;;7.60;6.37;;;;;;;1.96;100.00;95202.25;4972226;28;20437;-72
2022/11/16 01:15:22;;;;;;;7.60;6.40;;;;;;;1.89;100.00;95169.88;4960928;28;20860;-72
2022/11/16 01:17:51;;;;;;;8.97;7.07;;;;;;;2.04;100.00;95203.38;4972011;28;20496;-73
2022/11/16 01:20:20;;;;;;;9.27;6.83;;;;;;;2.00;100.00;95208.41;4971985;28;20453;-73
2022/11/16 01:22:47;;;;;;;8.57;7.17;;;;;;;2.03;100.00;95202.59;4971958;28;20442;-72
2022/11/16 01:25:14;;;;;;;7.10;6.40;;;;;;;2.00;100.00;95200.59;4971775;28;20852;-72
2022/11/16 01:27:42;;;;;;;9.17;7.70;;;;;;;1.80;100.00;95171.66;4986714;28;20563;-72
2022/11/16 01:30:15;;;;;;;8.70;7.80;;;;;;;2.05;100.00;95194.47;4991380;28;20443;-73
2022/11/16 01:32:49;;;;;;;8.90;7.17;;;;;;;1.87;100.00;95164.97;4987162;28;20448;-72
2022/11/16 01:35:17;;;;;;;8.47;6.80;;;;;;;2.00;100.00;95197.19;4955838;28;20429;-72
2022/11/16 01:37:45;;;;;;;8.03;7.07;;;;;;;1.63;100.00;95136.63;5005676;28;20479;-73
2022/11/16 01:40:13;;;;;;;7.40;6.40;;;;;;;1.99;100.00;95187.84;4991112;28;20451;-73
2022/11/16 01:42:41;;;;;;;9.50;7.00;;;;;;;1.76;100.00;95159.22;4972996;28;20445;-72
2022/11/16 01:45:37;;;;;;;8.10;6.77;;;;;;;1.98;100.00;95183.69;4971469;28;20556;-72
2022/11/16 01:48:08;;;;;;;8.00;7.20;;;;;;;2.05;100.00;95177.00;4992497;28;20558;-72
2022/11/16 01:50:36;;;;;;;7.23;6.00;;;;;;;1.87;100.00;95162.34;4990765;28;20487;-72
2022/11/16 01:53:05;;;;;;;7.73;7.03;;;;;;;2.09;100.00;95190.19;4990769;28;20524;-72
2022/11/16 01:55:43;;;;;;;6.50;5.83;;;;;;;2.06;100.00;95178.53;4972320;28;20915;-72
2022/11/16 01:58:31;;;;;;;7.27;6.30;;;;;;;2.07;100.00;95167.03;4958349;28;20477;-72
2022/11/16 02:01:09;;;;;;;11.50;6.83;;;;;;;1.80;100.00;95133.34;4966135;28;20809;-72
2022/11/16 02:03:43;;;;;;;7.40;5.90;;;;;;;1.98;100.00;95153.19;4970549;28;20532;-72
2022/11/16 02:06:25;;;;;;;7.07;6.30;;;;;;;1.97;100.00;95151.66;4971193;28;20460;-72
2022/11/16 02:12:42;;;;;;;11.93;6.10;;;;;;;1.80;100.00;95124.75;4971217;28;20957;-72
2022/11/16 02:15:40;;;;;;;7.87;7.07;;;;;;;2.03;100.00;95136.66;4971120;28;20445;-72
2022/11/16 02:18:18;;;;;;;6.70;5.77;;;;;;;2.10;100.00;95136.22;4973127;28;20491;-72
2022/11/16 02:20:45;;;;;;;7.37;6.47;;;;;;;2.14;100.00;95139.75;4990448;28;20479;-72
2022/11/16 02:23:40;;;;;;;9.03;6.23;;;;;;;2.13;100.00;95141.59;5006746;28;20883;-72
2022/11/16 02:26:13;;;;;;;7.83;7.03;;;;;;;2.18;100.00;95146.69;4990046;28;20917;-72
2022/11/16 02:29:01;;;;;;;6.80;6.13;;;;;;;2.05;100.00;95119.66;4990710;28;20465;-72
2022/11/16 02:31:36;;;;;;;9.30;6.10;;;;;;;2.25;100.00;95135.81;4977155;28;20428;-72
2022/11/16 02:34:07;;;;;;;6.70;5.93;;;;;;;1.99;100.00;95107.03;4990346;28;20439;-73
2022/11/16 02:36:39;;;;;;;9.77;6.90;;;;;;;1.78;100.00;95094.56;4990370;28;20447;-72
2022/11/16 02:39:17;;;;;;;7.30;6.23;;;;;;;1.84;100.00;95113.44;4990465;28;20831;-72
2022/11/16 02:41:47;;;;;;;11.27;6.57;;;;;;;1.94;100.00;95115.78;4974305;28;20443;-72
2022/11/16 02:44:19;;;;;;;8.10;7.10;;;;;;;1.92;100.00;95106.72;4972637;28;20436;-72
2022/11/16 02:46:51;;;;;;;10.63;7.37;;;;;;;2.03;100.00;95127.00;4970817;28;20537;-72
2022/11/16 02:49:20;;;;;;;8.50;6.83;;;;;;;2.27;100.00;95125.84;4990690;28;20855;-72
2022/11/16 02:51:47;;;;;;;7.53;6.00;;;;;;;2.18;100.00;95130.28;4990259;28;20432;-72
2022/11/16 02:54:16;;;;;;;6.70;5.90;;;;;;;2.21;100.00;95134.88;4958063;28;20437;-72
2022/11/16 02:56:55;;;;;;;6.27;5.63;;;;;;;2.24;100.00;95113.41;4983841;28;20444;-72
2022/11/16 02:59:31;;;;;;;5.80;5.13;;;;;;;2.25;100.00;95139.19;4970683;28;20449;-72
2022/11/16 03:02:22;;;;;;;8.40;7.13;;;;;;;2.35;100.00;95133.69;4974200;28;20443;-72
2022/11/16 03:04:56;;;;;;;7.40;6.70;;;;;;;1.85;100.00;95068.06;4991257;28;21137;-73
2022/11/16 03:07:30;;;;;;;6.37;5.77;;;;;;;2.17;100.00;95102.69;4989935;28;20464;-73
2022/11/16 03:09:58;;;;;;;8.57;6.43;;;;;;;2.11;100.00;95081.19;4990047;28;20816;-72
2022/11/16 03:12:30;;;;;;;7.23;6.27;;;;;;;2.40;100.00;95124.19;4974735;28;20452;-72
2022/11/16 03:15:01;;;;;;;6.83;6.10;;;;;;;2.20;100.00;95110.66;4993692;28;20432;-72
2022/11/16 03:17:35;;;;;;;7.00;5.67;;;;;;;2.36;100.00;95124.03;4993629;28;20471;-72
2022/11/16 03:20:11;;;;;;;8.07;6.30;;;;;;;2.26;100.00;95127.69;4993479;28;20440;-72
2022/11/16 03:22:45;;;;;;;7.47;6.63;;;;;;;2.29;100.00;95139.38;4982036;28;20915;-72
2022/11/16 03:25:16;;;;;;;6.73;5.30;;;;;;;2.40;100.00;95138.00;4982880;28;20487;-72
2022/11/16 03:28:05;;;;;;;7.00;5.80;;;;;;;2.34;100.00;95139.22;4977822;28;20924;-72
2022/11/16 03:30:38;;;;;;;9.90;6.90;;;;;;;2.24;100.00;95127.22;4993524;28;20448;-72
2022/11/16 03:33:26;;;;;;;6.40;5.53;;;;;;;2.30;100.00;95141.69;5009693;28;21082;-72
2022/11/16 03:36:13;;;;;;;8.67;6.50;;;;;;;2.24;100.00;95135.03;4978597;28;20450;-72
2022/11/16 03:38:42;;;;;;;6.10;5.50;;;;;;;2.11;100.00;95128.09;4973687;28;20465;-72
2022/11/16 03:41:11;;;;;;;7.07;5.70;;;;;;;2.01;100.00;95116.13;4973749;28;20441;-72
2022/11/16 03:43:41;;;;;;;6.93;6.17;;;;;;;2.01;100.00;95116.13;4973579;28;20491;-72
2022/11/16 03:46:08;;;;;;;6.13;5.53;;;;;;;2.08;100.00;95118.28;4979031;28;20466;-72
2022/11/16 03:48:36;;;;;;;5.90;5.27;;;;;;;2.33;100.00;95142.91;4992862;28;21002;-72
2022/11/16 03:51:09;;;;;;;7.97;5.97;;;;;;;2.28;100.00;95151.63;4971224;28;20447;-72
2022/11/16 03:53:38;;;;;;;6.93;5.57;;;;;;;2.34;100.00;95144.44;4989793;28;20464;-72
2022/11/16 03:56:05;;;;;;;6.20;5.60;;;;;;;2.38;100.00;95155.78;4973407;28;20975;-72
2022/11/16 03:58:32;;;;;;;6.20;5.60;;;;;;;2.46;100.00;95151.69;4973300;28;20464;-72
2022/11/16 04:00:59;;;;;;;6.00;5.50;;;;;;;2.32;100.00;95136.91;4973357;28;20797;-72
2022/11/16 04:03:27;;;;;;;6.37;5.73;;;;;;;2.31;100.00;95150.25;4973393;28;20480;-72
2022/11/16 04:25:45;;;;;;;6.53;5.87;;;;;;;2.21;100.00;95143.47;4973047;28;20468;-72
2022/11/16 04:28:20;;;;;;;6.87;5.57;;;;;;;2.29;100.00;95161.00;4972910;28;20467;-72
2022/11/16 04:39:28;;;;;;;6.27;5.63;;;;;;;2.35;100.00;95178.03;4989013;28;20500;-72
2022/11/16 04:42:13;;;;;;;6.70;6.03;;;;;;;2.28;100.00;95169.13;4984849;28;20432;-72
2022/11/16 04:47:32;;;;;;;8.20;6.03;;;;;;;2.29;100.00;95139.38;4990571;28;20511;-72
2022/11/16 04:49:58;;;;;;;5.97;5.37;;;;;;;2.23;100.00;95167.41;4975807;28;20498;-73
2022/11/16 04:52:27;;;;;;;10.83;6.53;;;;;;;2.38;100.00;95179.25;4962904;28;20433;-72
2022/11/16 04:54:54;;;;;;;6.60;5.60;;;;;;;2.17;100.00;95133.97;4979189;28;21000;-72
2022/11/16 04:57:21;;;;;;;5.83;5.27;;;;;;;2.19;100.00;95150.84;4985175;28;20469;-72
2022/11/16 04:59:49;;;;;;;7.13;6.33;;;;;;;2.16;100.00;95158.50;4972359;28;20448;-72
2022/11/16 05:02:16;;;;;;;5.80;5.30;;;;;;;2.20;100.00;95167.25;4985214;28;20464;-72
2022/11/16 05:04:55;;;;;;;6.53;5.50;;;;;;;1.92;100.00;95133.56;4973793;28;20449;-72
2022/11/16 05:07:23;;;;;;;8.77;6.27;;;;;;;1.93;100.00;95131.72;4975549;28;20642;-72
2022/11/16 05:09:53;;;;;;;6.60;5.67;;;;;;;2.10;100.00;95165.66;4975895;28;20480;-73
2022/11/16 05:12:23;;;;;;;6.23;5.57;;;;;;;2.15;100.00;95168.16;4965823;28;20519;-73
2022/11/16 05:14:56;;;;;;;6.73;5.53;;;;;;;1.95;100.00;95142.59;5009748;28;20439;-72
2022/11/16 05:17:26;;;;;;;6.30;5.70;;;;;;;2.28;100.00;95182.94;4991883;28;20475;-72
2022/11/16 05:22:54;;;;;;;7.13;5.17;;;;;;;1.97;100.00;95150.88;4978182;28;20481;-72
2022/11/16 05:25:22;;;;;;;8.80;5.63;;;;;;;2.06;100.00;95156.91;4991036;28;20493;-72
2022/11/16 05:27:49;;;;;;;6.37;4.97;;;;;;;2.02;100.00;95153.38;4991158;28;20496;-72
2022/11/16 05:30:16;;;;;;;6.97;5.87;;;;;;;2.27;100.00;95189.22;5007549;28;20446;-72
2022/11/16 05:32:43;;;;;;;5.63;5.10;;;;;;;2.09;100.00;95169.34;4974961;28;20437;-72
2022/11/16 05:35:10;;;;;;;7.60;5.90;;;;;;;1.95;100.00;95153.78;5006948;28;20472;-72
2022/11/16 05:37:37;;;;;;;8.00;5.80;;;;;;;1.90;100.00;95147.97;4990810;28;20514;-72
2022/11/16 05:40:04;;;;;;;6.80;5.90;;;;;;;1.94;100.00;95148.88;4990990;28;20435;-72
2022/11/16 05:42:39;;;;;;;6.67;6.07;;;;;;;1.97;100.00;95150.88;4990779;28;20443;-72
2022/11/16 05:45:06;;;;;;;5.63;5.10;;;;;;;2.11;100.00;95154.16;4990746;28;20444;-72
2022/11/16 05:47:33;;;;;;;6.83;6.13;;;;;;;2.36;100.00;95182.19;4990616;28;20885;-72
2022/11/16 05:50:00;;;;;;;6.40;5.60;;;;;;;2.45;100.00;95189.28;4974621;28;20448;-72
2022/11/16 05:52:31;;;;;;;7.03;5.63;;;;;;;2.36;100.00;95178.81;4957208;28;20936;-72
2022/11/16 05:55:03;;;;;;;5.27;4.80;;;;;;;1.91;100.00;95147.66;4971214;28;20433;-72
2022/11/16 05:57:34;;;;;;;7.87;6.80;;;;;;;2.20;100.00;95178.44;4978781;28;20471;-72
2022/11/16 06:00:01;;;;;;;9.57;6.70;;;;;;;2.19;100.00;95174.28;4988214;28;20432;-72
2022/11/16 06:02:31;;;;;;;6.70;5.43;;;;;;;2.12;100.00;95163.53;4971557;28;20459;-72
2022/11/16 06:04:58;;;;;;;6.40;4.90;;;;;;;2.24;100.00;95174.16;4971028;28;20475;-73
2022/11/16 06:07:25;;;;;;;7.37;6.20;;;;;;;2.13;100.00;95159.06;4954792;28;20563;-72
2022/11/16 06:09:52;;;;;;;7.77;5.60;;;;;;;2.13;100.00;95162.44;4973062;28;20543;-72
2022/11/16 06:12:20;;;;;;;6.63;6.03;;;;;;;2.11;100.00;95161.97;5006897;28;20454;-72
2022/11/16 06:14:47;;;;;;;8.33;6.07;;;;;;;2.00;100.00;95158.09;4991705;28;20432;-72
2022/11/16 06:17:13;;;;;;;8.13;6.40;;;;;;;1.86;100.00;95157.41;4990512;28;20484;-72
2022/11/16 06:19:41;;;;;;;6.17;5.60;;;;;;;1.82;100.00;95139.00;4990349;28;20557;-72
2022/11/16 06:22:08;;;;;;;8.27;7.00;;;;;;;1.93;100.00;95147.34;4974344;28;20444;-72
2022/11/16 06:24:34;;;;;;;6.80;6.10;;;;;;;1.59;100.00;95101.03;4990498;28;20448;-72
2022/11/16 06:27:02;;;;;;;13.63;7.40;;;;;;;1.84;100.00;95141.31;4990213;28;20492;-72
2022/11/16 06:29:28;;;;;;;6.07;5.47;;;;;;;1.83;100.00;95134.56;4991588;28;20459;-72
2022/11/16 06:31:56;;;;;;;7.90;6.90;;;;;;;1.67;100.00;95106.31;4990366;28;20444;-72
2022/11/16 06:34:23;;;;;;;7.20;6.40;;;;;;;1.93;100.00;95144.75;4990189;28;20440;-72
2022/11/16 06:36:50;;;;;;;7.27;5.63;;;;;;;1.66;100.00;95109.97;4990294;28;20452;-73
2022/11/16 06:39:17;;;;;;;7.73;6.30;;;;;;;1.84;100.00;95117.88;4990224;28;20475;-72
2022/11/16 06:41:44;;;;;;;9.27;7.27;;;;;;;1.70;100.00;95102.31;4963696;28;20440;-73
2022/11/16 06:44:12;;;;;;;8.17;7.33;;;;;;;1.25;100.00;95020.94;4975115;28;20852;-73
2022/11/16 06:46:49;;;;;;;6.57;5.97;;;;;;;2.02;100.00;95125.47;4979025;28;20460;-73
2022/11/16 06:49:16;;;;;;;8.83;7.53;;;;;;;2.25;100.00;95128.00;4990950;28;20456;-73
2022/11/16 06:51:44;;;;;;;5.60;5.10;;;;;;;1.97;100.00;95104.75;4974987;28;20459;-73
2022/11/16 06:54:11;;;;;;;6.80;5.33;;;;;;;2.04;100.00;95125.94;4987756;28;20469;-73
2022/11/16 06:56:38;;;;;;;6.47;5.37;;;;;;;2.10;100.00;95131.00;4958566;28;20468;-73
2022/11/16 06:59:05;;;;;;;8.97;6.90;;;;;;;2.06;100.00;95131.63;4990870;28;20429;-73
2022/11/16 07:01:33;;;;;;;6.33;4.87;;;;;;;1.91;100.00;95111.16;4971822;28;20440;-73
2022/11/16 07:04:04;;;;;;;6.83;5.27;;;;;;;1.97;100.00;95130.03;4993945;28;20450;-73
2022/11/16 07:06:31;;;;;;;8.30;6.30;;;;;;;2.10;100.00;95126.56;4993855;28;20475;-73
2022/11/16 07:08:58;;;;;;;8.70;6.63;;;;;;;1.93;100.00;95110.88;4993818;28;20489;-73
2022/11/16 07:11:29;;;;;;;6.83;5.70;;;;;;;1.88;100.00;95096.16;4978027;28;20448;-73
2022/11/16 07:13:57;;;;;;;6.90;5.57;;;;;;;1.98;100.00;95111.50;4977647;28;20494;-73
2022/11/16 07:16:24;;;;;;;10.33;8.33;;;;;;;1.96;100.00;95092.00;4962325;28;20468;-73
2022/11/16 07:18:57;;;;;;;10.63;7.70;;;;;;;2.27;100.00;95123.22;4958683;28;20466;-73
2022/11/16 07:21:27;;;;;;;7.60;6.70;;;;;;;2.15;100.00;95123.06;4974180;28;20495;-73
2022/11/16 07:23:54;;;;;;;7.00;5.97;;;;;;;2.19;100.00;95114.34;4958317;28;20432;-73
2022/11/16 07:26:22;;;;;;;8.70;6.07;;;;;;;2.08;100.00;95123.50;4974140;28;20542;-73
2022/11/16 07:28:57;;;;;;;6.63;6.03;;;;;;;2.05;100.00;95111.84;4973941;28;21011;-73
2022/11/16 07:31:24;;;;;;;11.30;7.50;;;;;;;1.96;100.00;95092.78;4974210;28;20449;-73
2022/11/16 07:34:11;;;;;;;8.40;6.33;;;;;;;2.16;100.00;95129.81;4975209;28;20479;-73
2022/11/16 07:36:44;;;;;;;8.43;6.63;;;;;;;1.82;100.00;95089.50;4974010;28;20499;-73
2022/11/16 07:39:11;;;;;;;8.30;6.20;;;;;;;2.20;100.00;95122.91;4958242;28;20854;-73
2022/11/16 07:41:38;;;;;;;7.17;6.20;;;;;;;1.98;100.00;95100.28;4973943;28;20441;-73
2022/11/16 07:44:15;;;;;;;6.83;6.13;;;;;;;2.21;100.00;95135.66;4973809;28;20456;-73
2022/11/16 07:46:52;;;;;;;9.20;6.30;;;;;;;1.90;100.00;95106.25;4973809;28;20510;-73
2022/11/16 07:49:19;;;;;;;8.40;7.50;;;;;;;1.99;100.00;95115.63;4977691;28;20455;-73
2022/11/16 07:51:52;;;;;;;7.33;6.57;;;;;;;2.17;100.00;95131.34;4978069;28;20455;-73
2022/11/16 07:54:34;;;;;;;13.00;8.60;;;;;;;2.14;100.00;95127.50;4969790;28;20437;-74
2022/11/16 07:57:01;;;;;;;11.53;7.70;;;;;;;2.10;100.00;95128.41;4989819;28;20468;-73
2022/11/16 07:59:28;;;;;;;11.13;9.43;;;;;;;1.98;100.00;95102.91;4973300;28;20531;-73
2022/11/16 08:01:57;;;;;;;8.00;6.60;;;;;;;2.36;100.00;95132.63;4973831;28;20469;-73
2022/11/16 08:04:26;;;;;;;9.80;6.50;;;;;;;2.41;100.00;95141.41;4973456;28;20446;-73
2022/11/16 08:06:53;;;;;;;9.03;7.00;;;;;;;1.85;100.00;95088.91;4973111;28;20477;-73
2022/11/16 08:09:20;;;;;;;8.57;6.70;;;;;;;2.09;100.00;95117.22;4973729;28;20785;-73
2022/11/16 08:11:50;;;;;;;9.20;7.40;;;;;;;2.05;100.00;95111.06;4957525;28;20448;-73
2022/11/16 08:14:18;;;;;;;10.80;7.83;;;;;;;1.91;100.00;95073.91;4973200;28;20453;-73
2022/11/16 08:16:46;;;;;;;11.07;7.20;;;;;;;2.08;100.00;95090.38;4957501;28;20448;-73
2022/11/16 08:19:14;;;;;;;7.87;6.97;;;;;;;2.03;100.00;95081.94;4973467;28;20957;-73
2022/11/16 08:21:41;;;;;;;10.07;7.50;;;;;;;2.08;100.00;95107.84;4973150;28;21311;-73
2022/11/16 08:24:08;;;;;;;8.57;7.67;;;;;;;2.06;100.00;95099.56;4974467;28;20435;-73
2022/11/16 08:26:38;;;;;;;11.03;7.60;;;;;;;2.00;100.00;95092.94;4979129;28;20475;-73
2022/11/16 08:29:08;;;;;;;8.00;7.30;;;;;;;1.66;100.00;95033.69;4979156;28;20436;-73
2022/11/16 08:31:38;;;;;;;9.93;7.63;;;;;;;2.01;100.00;95095.28;4972883;28;20824;-73
2022/11/16 08:34:10;;;;;;;8.97;8.00;;;;;;;2.09;100.00;95091.13;4957672;28;20437;-73
2022/11/16 08:36:40;;;;;;;12.27;8.10;;;;;;;2.36;100.00;95116.97;4972772;28;20814;-73
2022/11/16 08:39:07;;;;;;;9.30;7.00;;;;;;;2.09;100.00;95096.34;4975004;28;20456;-73
2022/11/16 08:41:36;;;;;;;7.77;6.97;;;;;;;2.25;100.00;95110.50;4992164;28;20440;-73
2022/11/16 08:44:05;;;;;;;8.13;7.33;;;;;;;2.15;100.00;95087.34;4992491;28;20436;-73
2022/11/16 08:46:35;;;;;;;9.03;6.57;;;;;;;2.12;100.00;95090.53;4992589;28;20464;-73
2022/11/16 08:49:17;;;;;;;10.20;7.83;;;;;;;2.28;100.00;95109.91;4978904;28;20487;-73
2022/11/16 08:51:43;;;;;;;8.50;7.13;;;;;;;2.32;100.00;95116.06;4992156;28;20452;-73
2022/11/16 08:54:10;;;;;;;8.70;7.10;;;;;;;2.17;100.00;95095.63;5002544;28;20824;-73
2022/11/16 08:56:39;;;;;;;10.73;8.00;;;;;;;2.39;100.00;95123.41;4956911;28;20496;-73
2022/11/16 08:59:07;;;;;;;6.77;6.17;;;;;;;2.34;100.00;95113.16;4972961;28;20449;-74
2022/11/16 09:01:41;;;;;;;14.67;8.30;;;;;;;2.34;100.00;95113.91;4972676;28;20444;-73
2022/11/16 09:04:07;;;;;;;10.40;6.70;;;;;;;2.64;100.00;95148.03;4972846;28;20996;-74
2022/11/16 09:06:35;;;;;;;9.03;7.60;;;;;;;2.74;100.00;95160.78;4995531;28;20460;-73
2022/11/16 09:09:02;;;;;;;10.03;7.40;;;;;;;2.64;100.00;95159.22;4994071;28;20550;-74
2022/11/16 09:11:29;;;;;;;7.77;6.80;;;;;;;2.42;100.00;95125.44;4992910;28;20452;-73
2022/11/16 09:13:56;;;;;;;9.10;7.87;;;;;;;2.59;100.00;95148.19;4992548;28;20467;-73
2022/11/16 09:16:23;;;;;;;9.53;8.53;;;;;;;2.33;100.00;95109.00;4993205;28;20781;-73
2022/11/16 09:18:50;;;;;;;7.43;6.53;;;;;;;2.58;100.00;95138.81;4983266;28;20460;-74
2022/11/16 09:21:19;;;;;;;10.30;7.77;;;;;;;2.40;100.00;95121.59;4972460;28;20439;-74
2022/11/16 09:23:47;;;;;;;8.43;7.50;;;;;;;2.56;100.00;95138.38;4972350;28;21033;-73
2022/11/16 09:26:14;;;;;;;9.33;7.83;;;;;;;2.45;100.00;95103.19;4972370;28;20440;-73
2022/11/16 09:28:41;;;;;;;11.53;8.43;;;;;;;2.69;100.00;95118.44;4972070;28;20555;-74
2022/11/16 09:31:09;;;;;;;11.40;8.80;;;;;;;2.92;100.00;95149.28;4972603;28;20455;-73
2022/11/16 09:33:36;;;;;;;10.27;7.70;;;;;;;2.90;100.00;95161.13;4991162;28;20531;-73
2022/11/16 09:36:08;;;;;;;9.53;8.57;;;;;;;2.91;100.00;95154.81;4991073;28;20782;-74
2022/11/16 09:38:40;;;;;;;8.83;7.20;;;;;;;2.78;100.00;95121.81;4979908;28;20467;-74
2022/11/16 09:41:32;;;;;;;8.83;6.53;;;;;;;3.03;100.00;95156.84;4960865;28;20432;-74
2022/11/16 09:44:33;;;;;;;10.20;8.30;;;;;;;2.72;100.00;95136.09;4971551;28;20433;-73
2022/11/16 09:47:06;;;;;;;8.57;6.63;;;;;;;2.69;100.00;95131.47;4971569;28;20460;-73
2022/11/16 09:49:50;;;;;;;6.20;5.33;;;;;;;2.82;100.00;95156.69;4971573;28;20468;-73
2022/11/16 09:52:44;;;;;;;6.30;5.40;;;;;;;2.86;100.00;95144.53;4987525;28;20436;-74
2022/11/16 09:55:32;;;;;;;6.33;5.23;;;;;;;2.75;100.00;95136.22;4971507;28;20949;-73
2022/11/16 09:58:03;;;;;;;5.40;4.90;;;;;;;2.60;100.00;95100.91;4973190;28;20449;-73
2022/11/16 10:00:30;;;;;;;5.73;5.20;;;;;;;2.81;100.00;95129.03;4971416;28;20459;-73
2022/11/16 10:03:11;;;;;;;6.00;5.40;;;;;;;2.70;100.00;95112.91;4972728;28;20869;-73
2022/11/16 10:06:05;;;;;;;5.90;4.70;;;;;;;2.92;100.00;95138.09;4990862;28;20435;-74
2022/11/16 10:08:46;;;;;;;5.87;5.27;;;;;;;2.82;100.00;95138.41;4973161;28;20473;-73
2022/11/16 10:11:12;;;;;;;5.20;4.70;;;;;;;2.87;100.00;95139.00;4971409;28;20543;-73
2022/11/16 10:14:06;;;;;;;5.40;4.90;;;;;;;2.95;100.00;95142.72;4977674;28;20831;-73
2022/11/16 10:16:47;;;;;;;5.83;5.00;;;;;;;3.04;100.00;95132.25;4990555;28;20440;-73
2022/11/16 10:19:31;;;;;;;11.27;7.47;;;;;;;3.18;100.00;95132.88;4978939;28;20433;-73
2022/11/16 10:21:58;;;;;;;12.13;7.00;;;;;;;3.13;100.00;95133.03;4960562;28;20508;-73
2022/11/16 10:24:34;;;;;;;10.23;6.87;;;;;;;3.10;100.00;95126.59;4972594;28;20437;-73
2022/11/16 10:27:13;;;;;;;6.40;5.70;;;;;;;3.12;100.00;95121.06;4972522;28;20553;-73
2022/11/16 10:29:53;;;;;;;8.17;6.03;;;;;;;3.12;100.00;95123.66;4956244;28;20441;-73
2022/11/16 10:32:26;;;;;;;6.47;5.80;;;;;;;3.16;100.00;95120.13;4955423;28;20445;-73
2022/11/16 10:34:58;;;;;;;5.63;5.10;;;;;;;3.34;100.00;95117.50;4971521;28;20425;-73
2022/11/16 10:37:30;;;;;;;6.37;5.77;;;;;;;3.25;100.00;95102.63;4972509;28;20456;-73
2022/11/16 10:39:57;;;;;;;5.03;4.63;;;;;;;3.31;100.00;95102.44;4972127;28;20425;-73
2022/11/16 10:42:35;;;;;;;5.93;5.33;;;;;;;3.48;100.00;95113.66;4973545;28;20435;-73
2022/11/16 10:45:08;;;;;;;5.87;5.20;;;;;;;3.45;100.00;95116.09;4982950;28;20447;-73
2022/11/16 10:47:43;;;;;;;7.17;5.23;;;;;;;3.46;100.00;95109.78;4991558;28;20503;-73
2022/11/16 10:50:22;;;;;;;6.77;5.57;;;;;;;3.58;100.00;95114.38;4992833;28;20506;-73
2022/11/16 10:52:49;;;;;;;5.97;5.37;;;;;;;3.60;100.00;95109.59;4993058;28;20434;-73
2022/11/16 10:55:18;;;;;;;6.20;5.60;;;;;;;3.63;100.00;95115.00;4979137;28;20437;-73
2022/11/16 10:58:00;;;;;;;6.00;5.30;;;;;;;3.48;100.00;95081.53;4958122;28;20461;-74
2022/11/16 11:00:48;;;;;;;5.80;5.20;;;;;;;3.52;100.00;95104.09;4983725;28;20872;-74
2022/11/16 11:03:29;;;;;;;6.10;5.50;;;;;;;3.58;100.00;95107.31;4985781;28;20788;-73
2022/11/16 11:05:55;;;;;;;6.47;5.90;;;;;;;3.71;100.00;95105.59;4992518;28;20435;-74
2022/11/16 11:08:30;;;;;;;6.87;5.90;;;;;;;3.67;100.00;95108.06;4990762;28;20917;-74
2022/11/16 11:12:36;;;;;;;5.77;5.17;;;;;;;3.65;100.00;95107.63;4992223;28;20485;-73
2022/11/16 11:14:14;;;;;;;7.83;5.57;;;;;;;3.69;100.00;95108.53;4983541;28;20475;-74
2022/11/16 11:16:41;;;;;;;6.13;5.07;;;;;;;3.74;100.00;95110.19;4972278;28;20437;-74
2022/11/16 11:19:27;;;;;;;5.20;4.77;;;;;;;3.63;100.00;95103.78;4971853;28;20443;-74
2022/11/16 11:21:56;;;;;;;5.53;5.03;;;;;;;3.43;100.00;95079.06;4988228;28;20437;-74
2022/11/16 11:24:25;;;;;;;6.27;5.53;;;;;;;3.63;100.00;95094.09;4972078;28;20496;-74
2022/11/16 11:27:12;;;;;;;5.27;4.87;;;;;;;3.37;100.00;95060.19;4966848;28;20477;-74
2022/11/16 11:29:41;;;;;;;4.07;3.77;;;;;;;3.41;100.00;95060.34;4975347;28;20451;-74
2022/11/16 11:32:18;;;;;;;5.70;4.70;;;;;;;3.55;100.00;95079.97;4990706;28;20892;-74
2022/11/16 11:34:52;;;;;;;4.60;3.93;;;;;;;3.59;100.00;95085.31;4978795;28;20470;-74
2022/11/16 11:37:29;;;;;;;4.50;4.10;;;;;;;3.46;100.00;95057.53;4994219;28;20479;-74
2022/11/16 11:40:09;;;;;;;4.07;3.63;;;;;;;3.75;100.00;95075.91;4975783;28;20468;-74
2022/11/16 11:42:41;;;;;;;6.30;4.50;;;;;;;3.79;100.00;95081.28;4976969;28;20464;-74
2022/11/16 11:45:14;;;;;;;5.33;4.13;;;;;;;3.64;100.00;95053.81;4960109;28;20472;-73
2022/11/16 11:47:40;;;;;;;5.33;4.83;;;;;;;3.82;100.00;95073.56;4974622;28;21031;-74
2022/11/16 11:50:34;;;;;;;4.30;3.90;;;;;;;3.87;100.00;95067.41;4975165;28;20468;-74
2022/11/16 11:53:24;;;;;;;3.83;3.53;;;;;;;3.89;100.00;95073.09;4975324;28;20472;-74
2022/11/16 11:55:56;;;;;;;4.30;3.83;;;;;;;3.67;100.00;95040.13;4972704;28;20460;-74
2022/11/16 11:58:32;;;;;;;3.80;3.50;;;;;;;3.86;100.00;95065.88;4975258;28;20475;-74
2022/11/16 12:01:19;;;;;;;6.07;4.50;;;;;;;3.89;100.00;95070.50;4963788;28;20452;-74
2022/11/16 12:04:09;;;;;;;6.27;4.30;;;;;;;3.86;100.00;95047.56;4988669;28;20441;-74
2022/11/16 12:06:42;;;;;;;5.93;4.83;;;;;;;4.13;100.00;95064.66;4979060;28;20909;-74
2022/11/16 12:09:28;;;;;;;4.93;4.43;;;;;;;4.26;100.00;95066.28;4974582;28;20464;-73
2022/11/16 12:12:13;;;;;;;4.20;3.80;;;;;;;4.20;100.00;95074.66;4995004;28;20448;-74
2022/11/16 12:15:19;;;;;;;4.67;4.27;;;;;;;4.19;100.00;95073.88;4993562;28;20436;-74
2022/11/16 12:18:05;;;;;;;3.80;3.37;;;;;;;3.93;100.00;95007.88;4993021;28;20464;-74
2022/11/16 12:20:51;;;;;;;3.80;3.37;;;;;;;4.22;100.00;95081.09;4974166;28;20469;-74
2022/11/16 12:23:20;;;;;;;4.10;3.63;;;;;;;4.14;100.00;95074.84;4993398;28;20432;-74
2022/11/16 12:25:59;;;;;;;4.10;3.40;;;;;;;4.04;100.00;95058.72;5009605;28;21027;-74
2022/11/16 12:28:49;;;;;;;5.00;4.57;;;;;;;4.19;100.00;95070.50;4985297;28;21026;-74
2022/11/16 12:31:43;;;;;;;4.87;3.97;;;;;;;4.28;100.00;95066.75;4988822;28;20963;-75
2022/11/16 12:34:27;;;;;;;4.20;3.90;;;;;;;4.01;100.00;95057.53;4990442;28;20432;-75